createdAt,value
2019-05-20T00:00:16.944Z,16.40
2019-05-20T00:02:45.174Z,16.40
2019-05-20T00:05:12.593Z,16.30
2019-05-20T00:07:39.973Z,16.20
2019-05-20T00:10:07.012Z,16.10
2019-05-20T00:12:34.230Z,16.10
2019-05-20T00:15:05.385Z,16.10
2019-05-20T00:17:36.277Z,16.30
2019-05-20T00:20:05.068Z,16.30
2019-05-20T00:22:32.906Z,16.30
2019-05-20T00:25:00.829Z,16.10
2019-05-20T00:27:28.968Z,16.10
2019-05-20T00:29:57.132Z,16.00
2019-05-20T00:32:40.277Z,16.00
2019-05-20T00:34:56.961Z,15.90
2019-05-20T00:37:25.336Z,16.00
2019-05-20T00:39:52.993Z,16.00
2019-05-20T00:42:20.986Z,15.90
2019-05-20T00:44:49.815Z,15.90
2019-05-20T00:47:19.900Z,15.80
2019-05-20T00:49:47.451Z,15.60
2019-05-20T00:52:15.709Z,15.40
2019-05-20T00:54:43.386Z,15.40
2019-05-20T00:57:10.329Z,15.40
2019-05-20T00:59:40.560Z,15.30
2019-05-20T01:02:07.914Z,15.40
2019-05-20T01:04:35.666Z,15.40
2019-05-20T01:07:03.569Z,15.50
2019-05-20T01:09:31.214Z,15.30
2019-05-20T01:12:00.616Z,15.10
2019-05-20T01:14:28.697Z,15.10
2019-05-20T01:16:59.581Z,15.30
2019-05-20T01:19:27.234Z,15.30
2019-05-20T01:21:54.649Z,15.10
2019-05-20T01:24:22.393Z,15.00
2019-05-20T01:26:53.343Z,14.90
2019-05-20T01:29:25.634Z,14.90
2019-05-20T01:31:56.032Z,15.00
2019-05-20T01:34:24.665Z,15.00
2019-05-20T01:36:51.713Z,15.00
2019-05-20T01:39:19.521Z,14.90
2019-05-20T01:41:47.474Z,15.10
2019-05-20T01:44:17.545Z,15.20
2019-05-20T01:46:45.405Z,15.20
2019-05-20T01:49:12.541Z,15.40
2019-05-20T01:51:40.192Z,15.40
2019-05-20T01:54:07.689Z,15.30
2019-05-20T01:56:38.041Z,15.20
2019-05-20T01:59:07.916Z,15.10
2019-05-20T02:01:37.089Z,15.10
2019-05-20T02:04:04.659Z,15.20
2019-05-20T02:06:32.822Z,15.20
2019-05-20T02:09:01.008Z,15.10
2019-05-20T02:11:30.116Z,14.90
2019-05-20T02:14:07.187Z,14.80
2019-05-20T02:16:36.748Z,14.80
2019-05-20T02:19:07.746Z,14.80
2019-05-20T02:21:35.589Z,14.70
2019-05-20T02:24:03.496Z,14.70
2019-05-20T02:26:30.590Z,14.80
2019-05-20T02:28:57.626Z,14.90
2019-05-20T02:31:30.894Z,14.80
2019-05-20T02:34:01.990Z,14.70
2019-05-20T02:36:32.426Z,14.60
2019-05-20T02:39:00.294Z,14.60
2019-05-20T02:41:29.281Z,14.70
2019-05-20T02:43:56.906Z,14.70
2019-05-20T02:46:24.709Z,14.80
2019-05-20T02:48:53.012Z,14.90
2019-05-20T02:51:30.409Z,15.00
2019-05-20T02:54:00.295Z,15.00
2019-05-20T02:56:27.802Z,15.10
2019-05-20T02:58:55.809Z,15.10
2019-05-20T03:01:23.630Z,15.10
2019-05-20T03:04:10.627Z,15.00
2019-05-20T03:06:29.419Z,15.10
2019-05-20T03:09:01.443Z,15.00
2019-05-20T03:11:31.160Z,15.00
2019-05-20T03:13:59.204Z,14.90
2019-05-20T03:16:27.278Z,14.90
2019-05-20T03:18:55.245Z,14.80
2019-05-20T03:21:35.538Z,14.80
2019-05-20T03:24:02.935Z,14.80
2019-05-20T03:26:30.651Z,14.60
2019-05-20T03:29:00.777Z,14.60
2019-05-20T03:31:31.537Z,14.60
2019-05-20T03:33:59.784Z,14.60
2019-05-20T03:36:31.565Z,14.60
2019-05-20T03:38:59.635Z,14.70
2019-05-20T03:41:28.275Z,14.70
2019-05-20T03:43:55.935Z,14.70
2019-05-20T03:46:25.529Z,14.70
2019-05-20T03:48:56.002Z,14.60
2019-05-20T03:51:24.682Z,14.60
2019-05-20T03:53:53.446Z,14.50
2019-05-20T03:56:20.917Z,14.50
2019-05-20T03:58:48.385Z,14.40
2019-05-20T04:01:18.719Z,14.40
2019-05-20T04:03:50.258Z,14.50
2019-05-20T04:06:22.790Z,14.40
2019-05-20T04:08:51.947Z,14.60
2019-05-20T04:11:19.446Z,14.50
2019-05-20T04:13:46.566Z,14.50
2019-05-20T04:16:13.786Z,14.50
2019-05-20T04:18:42.429Z,14.50
2019-05-20T04:21:14.953Z,14.40
2019-05-20T04:23:45.701Z,14.50
2019-05-20T04:26:13.334Z,14.50
2019-05-20T04:28:41.409Z,14.50
2019-05-20T04:31:09.025Z,14.60
2019-05-20T04:33:36.699Z,14.60
2019-05-20T04:36:05.045Z,14.50
2019-05-20T04:38:32.297Z,14.40
2019-05-20T04:40:59.845Z,14.50
2019-05-20T04:43:27.835Z,14.50
2019-05-20T04:46:01.163Z,14.60
2019-05-20T04:48:28.366Z,14.50
2019-05-20T04:50:58.258Z,14.60
2019-05-20T04:53:25.423Z,14.60
2019-05-20T04:55:53.597Z,14.60
2019-05-20T04:58:20.646Z,14.50
2019-05-20T05:00:58.448Z,14.50
2019-05-20T05:03:25.664Z,14.50
2019-05-20T05:05:53.702Z,14.60
2019-05-20T05:08:23.609Z,14.60
2019-05-20T05:10:51.266Z,14.80
2019-05-20T05:13:21.434Z,14.80
2019-05-20T05:15:50.023Z,14.80
2019-05-20T05:18:17.956Z,15.00
2019-05-20T05:20:45.479Z,15.00
2019-05-20T05:23:16.501Z,15.10
2019-05-20T05:25:45.927Z,15.10
2019-05-20T05:28:13.988Z,15.30
2019-05-20T05:30:42.619Z,15.30
2019-05-20T05:33:10.413Z,15.30
2019-05-20T05:35:51.977Z,15.40
2019-05-20T05:38:08.984Z,15.50
2019-05-20T05:40:38.969Z,15.50
2019-05-20T05:43:06.917Z,15.40
2019-05-20T05:45:34.769Z,15.40
2019-05-20T05:48:03.231Z,15.40
2019-05-20T05:50:53.497Z,15.50
2019-05-20T05:53:23.504Z,15.60
2019-05-20T05:55:50.924Z,15.60
2019-05-20T05:58:18.497Z,15.60
2019-05-20T06:00:45.951Z,15.70
2019-05-20T06:03:14.018Z,15.70
2019-05-20T06:05:46.193Z,15.80
2019-05-20T06:08:17.461Z,15.80
2019-05-20T06:10:45.535Z,15.80
2019-05-20T06:13:12.751Z,15.80
2019-05-20T06:15:39.845Z,15.80
2019-05-20T06:18:07.038Z,15.80
2019-05-20T06:20:39.318Z,15.90
2019-05-20T06:23:11.939Z,16.00
2019-05-20T06:25:42.047Z,16.10
2019-05-20T06:28:09.313Z,16.20
2019-05-20T06:30:44.105Z,16.30
2019-05-20T06:33:11.242Z,16.30
2019-05-20T06:35:38.990Z,16.40
2019-05-20T06:38:10.115Z,16.40
2019-05-20T06:40:38.918Z,16.40
2019-05-20T06:43:09.818Z,16.30
2019-05-20T06:45:37.362Z,16.40
2019-05-20T06:48:05.231Z,16.50
2019-05-20T06:50:34.629Z,16.50
2019-05-20T06:53:02.302Z,16.50
2019-05-20T06:55:30.317Z,16.50
2019-05-20T06:58:01.327Z,16.50
2019-05-20T07:00:35.792Z,16.50
2019-05-20T07:03:07.296Z,16.70
2019-05-20T07:05:38.382Z,16.90
2019-05-20T07:08:08.444Z,16.80
2019-05-20T07:10:37.465Z,16.80
2019-05-20T07:13:05.410Z,16.90
2019-05-20T07:15:33.505Z,17.00
2019-05-20T07:18:02.049Z,17.00
2019-05-20T07:20:33.930Z,17.10
2019-05-20T07:23:05.835Z,17.20
2019-05-20T07:25:36.005Z,17.30
2019-05-20T07:28:03.884Z,17.40
2019-05-20T07:30:32.168Z,17.50
2019-05-20T07:33:03.736Z,17.60
2019-05-20T07:35:33.374Z,17.80
2019-05-20T07:38:02.377Z,17.90
2019-05-20T07:40:32.818Z,18.00
2019-05-20T07:43:08.200Z,18.20
2019-05-20T07:45:40.529Z,18.30
2019-05-20T07:48:10.942Z,18.30
2019-05-20T07:50:42.753Z,18.50
2019-05-20T07:53:15.663Z,18.60
2019-05-20T07:55:59.185Z,18.90
2019-05-20T07:58:28.942Z,19.00
2019-05-20T08:00:56.619Z,19.10
2019-05-20T08:03:33.449Z,19.10
2019-05-20T08:06:06.650Z,19.20
2019-05-20T08:08:36.049Z,19.30
2019-05-20T08:11:05.544Z,19.30
2019-05-20T08:13:33.073Z,19.40
2019-05-20T08:16:00.266Z,19.50
2019-05-20T08:18:27.515Z,19.60
2019-05-20T08:20:54.911Z,19.60
2019-05-20T08:23:27.289Z,19.50
2019-05-20T08:25:59.282Z,19.50
2019-05-20T08:28:29.501Z,19.50
2019-05-20T08:30:58.560Z,19.50
2019-05-20T08:33:26.222Z,19.30
2019-05-20T08:35:53.901Z,19.20
2019-05-20T08:38:21.337Z,19.20
2019-05-20T08:40:52.263Z,19.20
2019-05-20T08:43:25.033Z,19.20
2019-05-20T08:45:55.926Z,19.00
2019-05-20T08:48:32.850Z,18.90
2019-05-20T08:51:05.929Z,18.80
2019-05-20T08:53:37.227Z,18.80
2019-05-20T08:56:08.281Z,18.70
2019-05-20T08:58:35.595Z,18.70
2019-05-20T09:01:03.168Z,18.60
2019-05-20T09:03:32.090Z,18.50
2019-05-20T09:06:00.252Z,18.60
2019-05-20T09:08:31.206Z,18.60
2019-05-20T09:11:02.064Z,18.60
2019-05-20T09:13:34.609Z,18.50
2019-05-20T09:16:07.734Z,18.70
2019-05-20T09:18:40.207Z,18.70
2019-05-20T09:21:10.988Z,18.60
2019-05-20T09:23:38.757Z,18.60
2019-05-20T09:26:06.080Z,18.50
2019-05-20T09:28:33.420Z,18.40
2019-05-20T09:31:01.313Z,18.40
2019-05-20T09:33:33.737Z,18.50
2019-05-20T09:36:08.093Z,18.50
2019-05-20T09:38:38.860Z,18.60
2019-05-20T09:41:11.155Z,18.70
2019-05-20T09:43:46.294Z,19.10
2019-05-20T09:46:17.513Z,19.30
2019-05-20T09:48:52.116Z,19.40
2019-05-20T09:51:23.553Z,19.50
2019-05-20T09:53:53.465Z,19.70
2019-05-20T09:56:21.406Z,20.00
2019-05-20T09:58:49.597Z,20.20
2019-05-20T10:01:18.263Z,20.40
2019-05-20T10:03:46.447Z,20.50
2019-05-20T10:06:16.480Z,20.30
2019-05-20T10:08:52.596Z,20.30
2019-05-20T10:11:22.368Z,20.80
2019-05-20T10:13:53.584Z,21.10
2019-05-20T10:16:26.475Z,21.50
2019-05-20T10:18:56.174Z,21.80
2019-05-20T10:21:23.729Z,21.90
2019-05-20T10:23:50.848Z,21.40
2019-05-20T10:26:18.716Z,20.90
2019-05-20T10:28:48.152Z,20.50
2019-05-20T10:31:22.823Z,20.20
2019-05-20T10:33:53.108Z,19.80
2019-05-20T10:36:25.360Z,19.60
2019-05-20T10:38:58.920Z,19.30
2019-05-20T10:41:29.453Z,18.90
2019-05-20T10:43:56.799Z,18.80
2019-05-20T10:46:23.973Z,18.40
2019-05-20T10:48:51.175Z,18.00
2019-05-20T10:51:19.641Z,17.70
2019-05-20T10:53:51.047Z,17.50
2019-05-20T10:56:29.534Z,17.30
2019-05-20T10:58:57.381Z,17.10
2019-05-20T11:01:29.265Z,17.00
2019-05-20T11:04:02.045Z,17.00
2019-05-20T11:06:34.402Z,16.90
2019-05-20T11:09:14.143Z,16.90
2019-05-20T11:11:41.854Z,16.90
2019-05-20T11:14:14.493Z,17.00
2019-05-20T11:16:48.376Z,17.00
2019-05-20T11:19:22.772Z,16.90
2019-05-20T11:21:53.277Z,16.90
2019-05-20T11:24:25.523Z,16.90
2019-05-20T11:26:56.426Z,17.00
2019-05-20T11:29:25.204Z,17.10
2019-05-20T11:31:53.261Z,17.00
2019-05-20T11:34:20.513Z,17.10
2019-05-20T11:36:48.139Z,17.30
2019-05-20T11:39:33.281Z,17.30
2019-05-20T11:41:54.391Z,17.40
2019-05-20T11:44:24.888Z,17.30
2019-05-20T11:46:56.400Z,17.30
2019-05-20T11:49:29.266Z,17.20
2019-05-20T11:52:02.236Z,17.20
2019-05-20T11:54:34.971Z,17.20
2019-05-20T11:57:09.975Z,17.40
2019-05-20T11:59:42.972Z,17.40
2019-05-20T12:02:14.994Z,17.30
2019-05-20T12:04:47.625Z,17.40
2019-05-20T12:07:19.699Z,17.60
2019-05-20T12:09:51.693Z,17.60
2019-05-20T12:12:18.834Z,17.80
2019-05-20T12:14:46.840Z,17.90
2019-05-20T12:17:14.046Z,18.00
2019-05-20T12:19:41.176Z,18.10
2019-05-20T12:22:13.652Z,18.10
2019-05-20T12:24:40.847Z,18.00
2019-05-20T12:27:10.800Z,18.10
2019-05-20T12:29:39.309Z,18.10
2019-05-20T12:32:21.528Z,18.20
2019-05-20T12:34:49.406Z,18.20
2019-05-20T12:37:16.583Z,18.20
2019-05-20T12:39:44.158Z,18.20
2019-05-20T12:42:11.961Z,18.10
2019-05-20T12:44:39.784Z,18.00
2019-05-20T12:47:07.555Z,17.90
2019-05-20T12:49:34.603Z,17.90
2019-05-20T12:52:02.593Z,17.90
2019-05-20T12:54:41.464Z,17.80
2019-05-20T12:57:10.956Z,17.80
2019-05-20T12:59:38.421Z,17.80
2019-05-20T13:02:06.857Z,17.90
2019-05-20T13:04:34.955Z,18.00
2019-05-20T13:07:02.621Z,18.20
2019-05-20T13:09:29.782Z,18.30
2019-05-20T13:11:57.274Z,18.40
2019-05-20T13:14:25.254Z,18.30
2019-05-20T13:16:56.423Z,18.20
2019-05-20T13:19:35.741Z,18.40
2019-05-20T13:22:03.057Z,18.40
2019-05-20T13:24:31.074Z,18.40
2019-05-20T13:26:59.582Z,18.20
2019-05-20T13:29:26.569Z,18.30
2019-05-20T13:31:54.048Z,18.30
2019-05-20T13:34:21.458Z,18.40
2019-05-20T13:36:49.269Z,18.40
2019-05-20T13:39:24.846Z,18.30
2019-05-20T13:41:56.438Z,18.30
2019-05-20T13:48:14.014Z,18.30
2019-05-20T13:50:43.080Z,18.10
2019-05-20T13:53:09.970Z,17.90
2019-05-20T13:55:37.840Z,17.80
2019-05-20T13:58:05.181Z,17.80
2019-05-20T14:00:32.322Z,17.80
2019-05-20T14:03:04.335Z,17.70
2019-05-20T14:05:31.421Z,17.80
2019-05-20T14:07:58.772Z,17.80
2019-05-20T14:10:28.106Z,17.60
2019-05-20T14:12:56.158Z,17.60
2019-05-20T14:15:28.213Z,17.40
2019-05-20T14:17:56.429Z,17.40
2019-05-20T14:20:23.498Z,17.50
2019-05-20T14:22:57.515Z,17.50
2019-05-20T14:25:30.281Z,17.40
2019-05-20T14:28:00.213Z,17.50
2019-05-20T14:30:32.841Z,17.30
2019-05-20T14:33:00.900Z,17.30
2019-05-20T14:35:39.456Z,17.30
2019-05-20T14:38:07.335Z,17.30
2019-05-20T14:40:39.525Z,17.30
2019-05-20T14:43:07.492Z,17.30
2019-05-20T14:45:38.523Z,17.20
2019-05-20T14:48:11.630Z,17.30
2019-05-20T14:50:48.447Z,17.20
2019-05-20T14:53:26.738Z,17.20
2019-05-20T14:55:54.574Z,17.20
2019-05-20T14:58:30.611Z,17.20
2019-05-20T15:01:02.779Z,17.30
2019-05-20T15:03:32.813Z,17.30
2019-05-20T15:06:09.159Z,17.40
2019-05-20T15:08:37.168Z,17.40
2019-05-20T15:11:08.463Z,17.40
2019-05-20T15:13:40.010Z,17.40
2019-05-20T15:16:15.565Z,17.40
2019-05-20T15:18:49.084Z,17.40
2019-05-20T15:21:20.718Z,17.30
2019-05-20T15:23:53.039Z,17.30
2019-05-20T15:26:22.073Z,17.40
2019-05-20T15:28:53.344Z,17.50
2019-05-20T15:31:27.084Z,17.60
2019-05-20T15:34:05.309Z,17.60
2019-05-20T15:36:44.160Z,17.40
2019-05-20T15:39:11.647Z,17.40
2019-05-20T15:41:46.073Z,17.30
2019-05-20T15:44:13.739Z,17.30
2019-05-20T18:02:09.425Z,16.60
2019-05-20T18:04:36.606Z,16.60
2019-05-20T18:07:03.893Z,16.70
2019-05-20T18:09:34.695Z,16.70
2019-05-20T18:12:05.160Z,16.60
2019-05-20T18:14:32.676Z,16.60
2019-05-20T18:17:02.016Z,16.60
2019-05-20T18:19:30.540Z,16.60
2019-05-20T18:21:59.041Z,16.60
2019-05-20T18:24:26.708Z,16.70
2019-05-20T18:26:53.925Z,16.60
2019-05-20T18:29:24.063Z,16.50
2019-05-20T18:31:51.357Z,16.50
2019-05-20T18:34:18.667Z,16.50
2019-05-20T18:36:46.374Z,16.60
2019-05-20T18:39:13.496Z,16.50
2019-05-20T18:41:41.876Z,16.60
2019-05-20T18:44:13.313Z,16.70
2019-05-20T18:46:40.511Z,16.60
2019-05-20T18:49:08.531Z,16.50
2019-05-20T18:51:36.559Z,16.50
2019-05-20T18:54:05.219Z,16.40
2019-05-20T18:56:33.416Z,16.40
2019-05-20T18:59:02.550Z,16.50
2019-05-20T19:01:32.322Z,16.50
2019-05-20T19:04:01.115Z,16.50
2019-05-20T19:06:29.776Z,16.40
2019-05-20T19:08:57.784Z,16.50
2019-05-20T19:11:25.807Z,16.50
2019-05-20T19:13:53.957Z,16.50
2019-05-20T19:16:22.348Z,16.40
2019-05-20T19:18:52.863Z,16.40
2019-05-20T19:21:20.401Z,16.40
2019-05-20T19:23:49.349Z,16.40
2019-05-20T19:26:24.914Z,16.40
2019-05-20T19:28:46.815Z,16.40
2019-05-20T19:31:14.982Z,16.40
2019-05-20T19:33:42.808Z,16.40
2019-05-20T19:36:12.771Z,16.30
2019-05-20T19:38:40.034Z,16.40
2019-05-20T19:41:08.830Z,16.30
2019-05-20T19:43:36.193Z,16.30
2019-05-20T19:46:03.629Z,16.30
2019-05-20T19:48:34.419Z,16.30
2019-05-20T19:51:02.116Z,16.30
2019-05-20T19:53:31.033Z,16.30
2019-05-20T19:55:59.262Z,16.30
2019-05-20T19:58:27.856Z,16.30
2019-05-20T20:00:56.814Z,16.30
2019-05-20T20:03:24.066Z,16.20
2019-05-20T20:05:53.743Z,16.20
2019-05-20T20:08:24.822Z,16.20
2019-05-20T20:10:53.061Z,16.20
2019-05-20T20:13:21.927Z,16.20
2019-05-20T20:15:49.716Z,16.10
2019-05-20T20:18:17.073Z,16.20
2019-05-20T20:20:44.332Z,16.10
2019-05-20T20:23:11.980Z,16.20
2019-05-20T20:25:40.805Z,16.10
2019-05-20T20:28:07.924Z,16.00
2019-05-20T20:30:37.169Z,16.10
2019-05-20T20:33:04.311Z,16.00
2019-05-20T20:35:37.997Z,16.10
2019-05-20T20:38:01.121Z,16.10
2019-05-20T20:40:28.596Z,16.00
2019-05-20T20:42:57.072Z,16.00
2019-05-20T20:45:25.558Z,16.00
2019-05-20T20:47:54.089Z,15.90
2019-05-20T20:50:21.347Z,15.80
2019-05-20T20:52:48.461Z,15.70
2019-05-20T20:55:16.675Z,15.70
2019-05-20T20:57:44.098Z,15.60
2019-05-20T21:00:11.908Z,15.50
2019-05-20T21:02:52.612Z,15.40
2019-05-20T21:05:11.020Z,15.40
2019-05-20T21:07:39.937Z,15.30
2019-05-20T21:10:07.772Z,15.30
2019-05-20T21:12:35.179Z,15.40
2019-05-20T21:15:03.757Z,15.30
2019-05-20T21:17:32.684Z,15.30
2019-05-20T21:20:00.558Z,15.30
2019-05-20T21:22:28.472Z,15.20
2019-05-20T21:24:55.572Z,15.10
2019-05-20T21:27:25.199Z,15.20
2019-05-20T21:29:52.928Z,15.10
2019-05-20T21:32:22.609Z,15.20
2019-05-20T21:34:50.902Z,15.20
2019-05-20T21:37:19.355Z,15.10
2019-05-20T21:39:49.131Z,15.00
2019-05-20T21:42:16.559Z,15.00
2019-05-20T21:44:45.734Z,15.10
2019-05-20T21:47:12.907Z,15.10
2019-05-20T21:49:53.926Z,15.10
2019-05-20T21:52:22.155Z,15.20
2019-05-20T21:54:49.824Z,15.20
2019-05-20T21:57:16.852Z,15.20
2019-05-20T21:59:43.998Z,15.10
2019-05-20T22:02:11.793Z,15.00
2019-05-20T22:04:38.759Z,15.00
2019-05-20T22:07:06.956Z,15.10
2019-05-20T22:09:34.367Z,15.20
2019-05-20T22:12:01.736Z,15.10
2019-05-20T22:14:29.873Z,15.00
2019-05-20T22:16:57.158Z,15.10
2019-05-20T22:19:24.303Z,15.10
2019-05-20T22:22:01.916Z,15.10
2019-05-20T22:24:30.478Z,15.00
2019-05-20T22:26:57.524Z,15.00
2019-05-20T22:29:25.081Z,14.90
2019-05-20T22:31:52.788Z,15.00
2019-05-20T22:34:20.064Z,15.00
2019-05-20T22:36:50.359Z,15.00
2019-05-20T22:39:18.359Z,14.90
2019-05-20T22:41:45.830Z,15.00
2019-05-20T22:44:14.118Z,15.00
2019-05-20T22:46:41.891Z,15.00
2019-05-20T22:49:10.854Z,14.90
2019-05-20T22:51:38.944Z,14.90
2019-05-20T22:54:06.477Z,14.90
2019-05-20T22:56:34.803Z,14.90
2019-05-20T22:59:02.816Z,15.00
2019-05-20T23:01:30.087Z,14.90
2019-05-20T23:03:58.455Z,15.00
2019-05-20T23:06:26.163Z,15.00
2019-05-20T23:08:54.514Z,15.00
2019-05-20T23:11:22.845Z,14.90
2019-05-20T23:13:51.074Z,14.90
2019-05-20T23:16:18.563Z,14.90
2019-05-20T23:18:47.078Z,14.80
2019-05-20T23:21:16.108Z,14.90
2019-05-20T23:23:44.127Z,14.90
2019-05-20T23:26:11.594Z,14.90
2019-05-20T23:28:39.180Z,14.90
2019-05-20T23:31:06.604Z,15.00
2019-05-20T23:33:35.315Z,15.00
2019-05-20T23:36:02.827Z,14.90
2019-05-20T23:38:32.533Z,14.90
2019-05-20T23:41:01.028Z,14.90
2019-05-20T23:43:28.118Z,15.00
2019-05-20T23:45:56.817Z,15.00
2019-05-20T23:48:24.350Z,14.90
2019-05-20T23:50:52.412Z,14.80
2019-05-20T23:53:21.052Z,14.90
2019-05-20T23:55:49.181Z,14.90
2019-05-20T23:58:18.261Z,14.90
